createdAt,value
2022-12-05T00:00:21.684Z,100
2022-12-05T00:01:37.980Z,100
2022-12-05T00:02:53.295Z,100
2022-12-05T00:04:09.585Z,100
2022-12-05T00:05:25.888Z,100
2022-12-05T00:06:42.172Z,100
2022-12-05T00:07:58.478Z,100
2022-12-05T00:09:14.766Z,100
2022-12-05T00:10:31.055Z,100
2022-12-05T00:11:47.365Z,100
2022-12-05T00:13:03.655Z,100
2022-12-05T00:14:19.949Z,100
2022-12-05T00:15:36.239Z,100
2022-12-05T00:16:52.534Z,100
2022-12-05T00:18:08.820Z,100
2022-12-05T00:19:24.142Z,100
2022-12-05T00:20:40.425Z,100
2022-12-05T00:21:56.724Z,100
2022-12-05T00:23:13.026Z,100
2022-12-05T00:24:29.318Z,100
2022-12-05T00:25:45.600Z,100
2022-12-05T00:27:01.896Z,100
2022-12-05T00:28:18.197Z,100
2022-12-05T00:29:34.490Z,100
2022-12-05T00:30:50.780Z,100
2022-12-05T00:32:07.083Z,100
2022-12-05T00:33:23.378Z,100
2022-12-05T00:34:39.659Z,100
2022-12-05T00:35:54.967Z,100
2022-12-05T00:37:11.276Z,100
2022-12-05T00:38:27.559Z,100
2022-12-05T00:39:43.867Z,100
2022-12-05T00:41:00.164Z,100
2022-12-05T00:42:16.448Z,100
2022-12-05T00:43:32.737Z,100
2022-12-05T00:44:49.041Z,100
2022-12-05T00:46:05.327Z,100
2022-12-05T00:47:21.624Z,100
2022-12-05T00:48:37.910Z,100
2022-12-05T00:49:54.206Z,100
2022-12-05T00:51:10.510Z,100
2022-12-05T00:52:25.814Z,100
2022-12-05T00:53:42.115Z,100
2022-12-05T00:54:58.401Z,100
2022-12-05T00:56:13.730Z,100
2022-12-05T00:57:30.024Z,100
2022-12-05T00:58:46.306Z,100
2022-12-05T01:00:02.608Z,100
2022-12-05T01:01:18.890Z,100
2022-12-05T01:02:35.201Z,100
2022-12-05T01:03:51.477Z,100
2022-12-05T01:05:07.784Z,100
2022-12-05T01:06:24.081Z,100
2022-12-05T01:07:40.377Z,100
2022-12-05T01:08:56.670Z,100
2022-12-05T01:10:12.948Z,100
2022-12-05T01:11:29.250Z,100
2022-12-05T01:12:45.535Z,100
2022-12-05T01:14:00.847Z,100
2022-12-05T01:15:17.150Z,100
2022-12-05T01:16:33.440Z,100
2022-12-05T01:17:49.738Z,100
2022-12-05T01:19:06.034Z,100
2022-12-05T01:20:22.324Z,100
2022-12-05T01:21:38.628Z,100
2022-12-05T01:22:54.907Z,100
2022-12-05T01:24:11.207Z,100
2022-12-05T01:25:27.501Z,100
2022-12-05T01:26:43.789Z,100
2022-12-05T01:28:00.084Z,100
2022-12-05T01:29:16.375Z,100
2022-12-05T01:30:32.679Z,100
2022-12-05T01:31:47.986Z,100
2022-12-05T01:33:04.288Z,100
2022-12-05T01:34:20.584Z,100
2022-12-05T01:35:36.864Z,100
2022-12-05T01:36:53.155Z,100
2022-12-05T01:38:09.451Z,100
2022-12-05T01:39:25.755Z,100
2022-12-05T01:40:42.049Z,100
2022-12-05T01:41:58.334Z,100
2022-12-05T01:43:14.624Z,100
2022-12-05T01:44:30.933Z,100
2022-12-05T01:45:47.232Z,100
2022-12-05T01:47:03.512Z,100
2022-12-05T01:48:19.806Z,100
2022-12-05T01:49:35.126Z,100
2022-12-05T01:50:51.418Z,100
2022-12-05T01:52:07.701Z,100
2022-12-05T01:53:23.998Z,100
2022-12-05T01:54:40.305Z,100
2022-12-05T01:55:56.595Z,100
2022-12-05T01:57:12.888Z,100
2022-12-05T01:58:29.173Z,100
2022-12-05T01:59:45.476Z,100
2022-12-05T02:01:01.772Z,100
2022-12-05T02:02:18.056Z,100
2022-12-05T02:03:34.349Z,100
2022-12-05T02:04:50.655Z,100
2022-12-05T02:06:06.948Z,100
2022-12-05T02:07:22.252Z,100
2022-12-05T02:08:38.556Z,100
2022-12-05T02:09:54.846Z,100
2022-12-05T02:11:11.140Z,100
2022-12-05T02:12:27.427Z,100
2022-12-05T02:13:43.725Z,100
2022-12-05T02:15:00.026Z,100
2022-12-05T02:16:16.312Z,100
2022-12-05T02:17:32.612Z,100
2022-12-05T02:18:48.906Z,100
2022-12-05T02:20:05.192Z,100
2022-12-05T02:21:21.494Z,100
2022-12-05T02:22:37.790Z,100
2022-12-05T02:23:53.089Z,100
2022-12-05T02:25:09.383Z,100
2022-12-05T02:26:25.674Z,100
2022-12-05T02:27:41.975Z,100
2022-12-05T02:28:58.274Z,100
2022-12-05T02:30:14.556Z,100
2022-12-05T02:31:30.852Z,100
2022-12-05T02:32:47.148Z,100
2022-12-05T02:34:03.450Z,100
2022-12-05T02:35:19.746Z,100
2022-12-05T02:36:36.028Z,100
2022-12-05T02:37:52.335Z,100
2022-12-05T02:39:08.621Z,100
2022-12-05T02:40:23.926Z,100
2022-12-05T02:41:40.236Z,100
2022-12-05T02:42:56.527Z,100
2022-12-05T02:44:12.806Z,100
2022-12-05T02:45:29.117Z,100
2022-12-05T02:46:45.397Z,100
2022-12-05T02:48:01.702Z,100
2022-12-05T02:49:17.987Z,100
2022-12-05T02:50:34.281Z,100
2022-12-05T02:51:50.590Z,100
2022-12-05T02:53:06.870Z,100
2022-12-05T02:54:23.165Z,100
2022-12-05T02:55:39.463Z,100
2022-12-05T02:56:54.774Z,100
2022-12-05T02:58:11.058Z,100
2022-12-05T02:59:27.356Z,100
2022-12-05T03:00:43.662Z,100
2022-12-05T03:01:59.959Z,100
2022-12-05T03:03:16.238Z,100
2022-12-05T03:04:32.532Z,100
2022-12-05T03:05:48.835Z,100
2022-12-05T03:07:05.116Z,100
2022-12-05T03:08:21.414Z,100
2022-12-05T03:09:37.707Z,100
2022-12-05T03:10:53.996Z,100
2022-12-05T03:12:10.291Z,100
2022-12-05T03:13:25.604Z,100
2022-12-05T03:14:41.907Z,100
2022-12-05T03:15:58.201Z,100
2022-12-05T03:17:14.497Z,100
2022-12-05T03:18:30.781Z,100
2022-12-05T03:19:47.080Z,100
2022-12-05T03:21:03.361Z,100
2022-12-05T03:22:19.659Z,100
2022-12-05T03:23:35.957Z,100
2022-12-05T03:24:52.249Z,100
2022-12-05T03:26:08.556Z,100
2022-12-05T03:27:24.841Z,100
2022-12-05T03:28:41.127Z,100
2022-12-05T03:29:56.445Z,100
2022-12-05T03:31:12.733Z,100
2022-12-05T03:32:29.035Z,100
2022-12-05T03:33:45.319Z,100
2022-12-05T03:35:01.632Z,100
2022-12-05T03:36:17.906Z,100
2022-12-05T03:37:34.202Z,100
2022-12-05T03:38:50.496Z,100
2022-12-05T03:40:06.808Z,100
2022-12-05T03:41:23.088Z,100
2022-12-05T03:42:39.384Z,100
2022-12-05T03:43:55.686Z,100
2022-12-05T03:45:11.976Z,100
2022-12-05T03:46:28.259Z,100
2022-12-05T03:47:43.588Z,100
2022-12-05T03:48:59.868Z,100
2022-12-05T03:50:16.170Z,100
2022-12-05T03:51:32.472Z,100
2022-12-05T03:52:48.753Z,100
2022-12-05T03:54:05.045Z,100
2022-12-05T03:55:21.346Z,100
2022-12-05T03:56:37.639Z,100
2022-12-05T03:57:53.923Z,100
2022-12-05T03:59:10.221Z,100
2022-12-05T04:00:26.507Z,100
2022-12-05T04:01:42.818Z,100
2022-12-05T04:02:59.100Z,100
2022-12-05T04:04:15.524Z,100
2022-12-05T04:05:31.819Z,100
2022-12-05T04:06:48.105Z,100
2022-12-05T04:08:04.392Z,100
2022-12-05T04:09:20.694Z,100
2022-12-05T04:10:36.985Z,100
2022-12-05T04:11:53.287Z,100
2022-12-05T04:13:09.577Z,100
2022-12-05T04:14:25.863Z,100
2022-12-05T04:15:42.167Z,100
2022-12-05T04:16:58.458Z,100
2022-12-05T04:18:14.747Z,100
2022-12-05T04:19:31.036Z,100
2022-12-05T04:20:46.360Z,100
2022-12-05T04:22:02.644Z,100
2022-12-05T04:23:18.956Z,100
2022-12-05T04:24:35.230Z,100
2022-12-05T04:25:51.529Z,100
2022-12-05T04:27:07.825Z,100
2022-12-05T04:28:24.121Z,100
2022-12-05T04:29:40.403Z,100
2022-12-05T04:30:56.711Z,100
2022-12-05T04:32:13.002Z,100
2022-12-05T04:33:29.301Z,100
2022-12-05T04:34:45.584Z,100
2022-12-05T04:36:01.877Z,100
2022-12-05T04:37:17.196Z,100
2022-12-05T04:38:33.478Z,100
2022-12-05T04:39:49.778Z,100
2022-12-05T04:41:06.066Z,100
2022-12-05T04:42:22.367Z,100
2022-12-05T04:43:38.656Z,100
2022-12-05T04:44:54.948Z,100
2022-12-05T04:46:11.249Z,100
2022-12-05T04:47:27.538Z,100
2022-12-05T04:48:43.845Z,100
2022-12-05T04:50:00.135Z,100
2022-12-05T04:51:16.425Z,100
2022-12-05T04:52:32.708Z,100
2022-12-05T04:53:48.035Z,100
2022-12-05T04:55:04.316Z,100
2022-12-05T04:56:20.623Z,100
2022-12-05T04:57:36.914Z,100
2022-12-05T04:58:53.196Z,100
2022-12-05T05:00:09.489Z,100
2022-12-05T05:01:25.790Z,100
2022-12-05T05:02:42.079Z,100
2022-12-05T05:03:58.371Z,100
2022-12-05T05:05:14.671Z,100
2022-12-05T05:06:30.967Z,100
2022-12-05T05:07:47.266Z,100
2022-12-05T05:09:03.549Z,100
2022-12-05T05:10:19.848Z,100
2022-12-05T05:11:35.165Z,100
2022-12-05T05:12:51.458Z,100
2022-12-05T05:14:07.746Z,100
2022-12-05T05:15:24.045Z,100
2022-12-05T05:16:40.332Z,100
2022-12-05T05:17:56.624Z,100
2022-12-05T05:19:12.917Z,100
2022-12-05T05:20:29.215Z,100
2022-12-05T05:21:45.515Z,100
2022-12-05T05:23:01.799Z,100
2022-12-05T05:24:18.092Z,100
2022-12-05T05:25:34.400Z,100
2022-12-05T05:26:50.700Z,100
2022-12-05T05:28:06.973Z,100
2022-12-05T05:29:22.286Z,100
2022-12-05T05:30:38.584Z,100
2022-12-05T05:31:54.879Z,100
2022-12-05T05:33:11.168Z,100
2022-12-05T05:34:27.469Z,100
2022-12-05T05:35:43.753Z,100
2022-12-05T05:37:00.064Z,100
2022-12-05T05:38:16.343Z,100
2022-12-05T05:39:32.643Z,100
2022-12-05T05:40:48.931Z,100
2022-12-05T05:42:05.235Z,100
2022-12-05T05:43:21.521Z,100
2022-12-05T05:44:37.815Z,100
2022-12-05T05:45:53.120Z,100
2022-12-05T05:47:09.419Z,100
2022-12-05T05:48:25.709Z,100
2022-12-05T05:49:42.009Z,100
2022-12-05T05:50:58.306Z,100
2022-12-05T05:52:14.605Z,100
2022-12-05T05:53:30.884Z,100
2022-12-05T05:54:47.183Z,100
2022-12-05T05:56:03.473Z,100
2022-12-05T05:57:19.776Z,100
2022-12-05T05:58:36.060Z,100
2022-12-05T05:59:52.362Z,100
2022-12-05T06:01:08.658Z,100
2022-12-05T06:02:23.966Z,100
2022-12-05T06:03:40.248Z,100
2022-12-05T06:04:56.547Z,100
2022-12-05T06:06:12.838Z,100
2022-12-05T06:07:29.140Z,100
2022-12-05T06:08:45.435Z,100
2022-12-05T06:10:01.718Z,100
2022-12-05T06:11:18.018Z,100
2022-12-05T06:12:34.308Z,100
2022-12-05T06:13:50.601Z,100
2022-12-05T06:15:06.898Z,100
2022-12-05T06:16:23.196Z,100
2022-12-05T06:17:39.493Z,100
2022-12-05T06:18:54.808Z,100
2022-12-05T06:20:11.098Z,100
2022-12-05T06:21:27.388Z,100
2022-12-05T06:22:43.687Z,100
2022-12-05T06:23:59.981Z,100
2022-12-05T06:25:16.265Z,100
2022-12-05T06:26:32.555Z,100
2022-12-05T06:27:48.851Z,100
2022-12-05T06:29:05.152Z,100
2022-12-05T06:30:21.448Z,100
2022-12-05T06:31:37.687Z,100
2022-12-05T06:32:53.940Z,100
2022-12-05T06:34:10.170Z,100
2022-12-05T06:35:25.431Z,100
2022-12-05T06:36:41.662Z,100
2022-12-05T06:37:57.933Z,100
2022-12-05T06:39:14.152Z,100
2022-12-05T06:40:30.386Z,100
2022-12-05T06:41:46.684Z,100
2022-12-05T06:43:02.931Z,100
2022-12-05T06:44:19.178Z,100
2022-12-05T06:45:35.414Z,100
2022-12-05T06:46:51.649Z,100
2022-12-05T06:48:07.892Z,100
2022-12-05T06:49:24.139Z,100
2022-12-05T06:50:40.372Z,100
2022-12-05T06:51:55.624Z,100
2022-12-05T06:53:11.866Z,100
2022-12-05T06:54:28.104Z,100
2022-12-05T06:55:44.356Z,100
2022-12-05T06:57:00.588Z,100
2022-12-05T06:58:16.825Z,100
2022-12-05T06:59:33.070Z,100
2022-12-05T07:00:49.302Z,100
2022-12-05T07:02:05.548Z,100
2022-12-05T07:03:21.781Z,100
2022-12-05T07:04:38.033Z,100
2022-12-05T07:05:54.264Z,100
2022-12-05T07:07:10.503Z,100
2022-12-05T07:08:25.777Z,100
2022-12-05T07:09:42.004Z,100
2022-12-05T07:10:58.241Z,100
2022-12-05T07:12:14.480Z,100
2022-12-05T07:13:30.718Z,100
2022-12-05T07:14:46.971Z,100
2022-12-05T07:16:03.210Z,100
2022-12-05T07:17:19.440Z,100
2022-12-05T07:18:35.686Z,100
2022-12-05T07:19:51.921Z,100
2022-12-05T07:21:08.176Z,100
2022-12-05T07:22:24.402Z,100
2022-12-05T07:23:40.638Z,100
2022-12-05T07:24:55.898Z,100
2022-12-05T07:26:12.141Z,100
2022-12-05T07:27:28.378Z,100
2022-12-05T07:28:44.614Z,100
2022-12-05T07:30:00.859Z,100
2022-12-05T07:31:17.095Z,100
2022-12-05T07:32:33.341Z,100
2022-12-05T07:33:49.586Z,100
2022-12-05T07:35:05.813Z,100
2022-12-05T07:36:22.053Z,100
2022-12-05T07:37:38.298Z,100
2022-12-05T07:38:54.531Z,100
2022-12-05T07:40:10.775Z,100
2022-12-05T07:41:26.039Z,100
2022-12-05T07:42:42.275Z,100
2022-12-05T07:43:58.507Z,100
2022-12-05T07:45:14.749Z,100
2022-12-05T07:46:30.986Z,100
2022-12-05T07:47:47.228Z,100
2022-12-05T07:49:03.480Z,100
2022-12-05T07:50:19.705Z,100
2022-12-05T07:51:35.958Z,100
2022-12-05T07:52:52.194Z,100
2022-12-05T07:54:08.444Z,100
2022-12-05T07:55:24.680Z,100
2022-12-05T07:56:40.913Z,100
2022-12-05T07:57:56.164Z,100
2022-12-05T07:59:12.401Z,100
2022-12-05T08:00:28.643Z,100
2022-12-05T08:01:44.885Z,100
2022-12-05T08:03:01.121Z,100
2022-12-05T08:04:17.362Z,100
2022-12-05T08:05:33.607Z,100
2022-12-05T08:06:49.844Z,100
2022-12-05T08:08:06.087Z,100
2022-12-05T08:09:22.325Z,100
2022-12-05T08:10:38.567Z,100
2022-12-05T08:11:54.812Z,100
2022-12-05T08:13:11.045Z,100
2022-12-05T08:14:26.310Z,100
2022-12-05T08:15:42.540Z,100
2022-12-05T08:16:58.782Z,100
2022-12-05T08:18:15.023Z,100
2022-12-05T08:19:31.258Z,100
2022-12-05T08:20:47.498Z,100
2022-12-05T08:22:03.737Z,100
2022-12-05T08:23:19.979Z,100
2022-12-05T08:24:36.232Z,100
2022-12-05T08:25:52.458Z,100
2022-12-05T08:27:08.700Z,100
2022-12-05T08:28:24.944Z,100
2022-12-05T08:29:41.187Z,100
2022-12-05T08:30:56.436Z,100
2022-12-05T08:32:12.674Z,100
2022-12-05T08:33:28.912Z,100
2022-12-05T08:34:45.156Z,100
2022-12-05T08:36:01.393Z,99.8
2022-12-05T08:37:17.634Z,99.4
2022-12-05T08:38:33.869Z,99.4
2022-12-05T08:39:50.115Z,99.5
2022-12-05T08:41:06.366Z,99.5
2022-12-05T08:42:22.591Z,99.5
2022-12-05T08:43:38.834Z,99.8
2022-12-05T08:44:55.071Z,99.5
2022-12-05T08:46:11.314Z,99.3
2022-12-05T08:47:26.565Z,99.3
2022-12-05T08:48:42.804Z,99.4
2022-12-05T08:49:59.059Z,99.1
2022-12-05T08:51:15.298Z,99.2
2022-12-05T08:52:31.533Z,99.1
2022-12-05T08:53:47.760Z,99.1
2022-12-05T08:55:04.018Z,98.8
2022-12-05T08:56:20.242Z,99
2022-12-05T08:57:36.488Z,98.9
2022-12-05T08:58:52.730Z,99
2022-12-05T09:00:08.971Z,99.1
2022-12-05T09:01:25.203Z,99.1
2022-12-05T09:02:41.444Z,99.1
2022-12-05T09:03:56.697Z,99.2
2022-12-05T09:05:12.943Z,98.8
2022-12-05T09:06:29.184Z,98.7
2022-12-05T09:07:45.419Z,98.7
2022-12-05T09:09:01.662Z,98.9
2022-12-05T09:10:17.911Z,99.1
2022-12-05T09:11:34.140Z,99.1
2022-12-05T09:12:50.384Z,99
2022-12-05T09:14:06.623Z,99.1
2022-12-05T09:15:22.872Z,98.9
2022-12-05T09:16:39.103Z,98.4
2022-12-05T09:17:55.337Z,98.6
2022-12-05T09:19:11.590Z,98.7
2022-12-05T09:20:26.837Z,98.8
2022-12-05T09:21:43.077Z,98.9
2022-12-05T09:22:59.320Z,99.2
2022-12-05T09:24:15.565Z,99.2
2022-12-05T09:25:31.801Z,99.4
2022-12-05T09:26:47.058Z,99
2022-12-05T09:28:03.292Z,99.2
2022-12-05T09:29:19.534Z,99.5
2022-12-05T09:30:35.786Z,99.3
2022-12-05T09:31:52.018Z,99.3
2022-12-05T09:33:08.270Z,99.1
2022-12-05T09:34:24.497Z,99.1
2022-12-05T09:35:40.736Z,99
2022-12-05T09:36:56.977Z,99
2022-12-05T09:38:13.230Z,99.1
2022-12-05T09:39:29.468Z,99.1
2022-12-05T09:40:45.704Z,98.6
2022-12-05T09:42:01.932Z,98.9
2022-12-05T09:43:17.193Z,99.1
2022-12-05T09:44:33.428Z,98.9
2022-12-05T09:45:49.682Z,99.1
2022-12-05T09:47:05.919Z,99.7
2022-12-05T09:48:22.149Z,99.8
2022-12-05T09:49:38.390Z,99.7
2022-12-05T09:50:54.632Z,99.8
2022-12-05T09:52:10.868Z,99.5
2022-12-05T09:53:27.109Z,99.5
2022-12-05T09:54:43.363Z,99.4
2022-12-05T09:55:59.604Z,99.5
2022-12-05T09:57:15.829Z,99.5
2022-12-05T09:58:32.082Z,99.4
2022-12-05T09:59:47.323Z,99.3
2022-12-05T10:01:03.567Z,99.4
2022-12-05T10:02:19.809Z,99.8
2022-12-05T10:03:36.052Z,99.7
2022-12-05T10:04:52.288Z,99.6
2022-12-05T10:06:08.525Z,99.7
2022-12-05T10:07:24.765Z,99.7
2022-12-05T10:08:41.009Z,99.5
2022-12-05T10:09:57.250Z,99.7
2022-12-05T10:11:13.483Z,99
2022-12-05T10:12:29.724Z,99.3
2022-12-05T10:13:45.968Z,99.7
2022-12-05T10:15:02.212Z,99.7
2022-12-05T10:16:17.461Z,99.5
2022-12-05T10:17:33.700Z,98.9
2022-12-05T10:18:49.946Z,98.9
2022-12-05T10:20:06.191Z,99.1
2022-12-05T10:21:22.429Z,98.5
2022-12-05T10:22:38.674Z,98.4
2022-12-05T10:23:54.905Z,98.8
2022-12-05T10:25:11.143Z,99.1
2022-12-05T10:26:27.387Z,99.1
2022-12-05T10:27:43.626Z,99.2
2022-12-05T10:28:59.861Z,99.3
2022-12-05T10:30:16.101Z,99.4
2022-12-05T10:31:32.352Z,99.2
2022-12-05T10:32:47.598Z,98.9
2022-12-05T10:34:03.841Z,99.1
2022-12-05T10:35:20.092Z,99.2
2022-12-05T10:36:36.314Z,99.4
2022-12-05T10:37:52.557Z,99.3
2022-12-05T10:39:08.793Z,99.2
2022-12-05T10:40:25.035Z,99.2
2022-12-05T10:41:41.276Z,99.3
2022-12-05T10:42:57.515Z,99
2022-12-05T10:45:29.992Z,99
2022-12-05T10:46:46.237Z,98.8
2022-12-05T10:48:02.471Z,98.9
2022-12-05T10:49:17.738Z,99.3
2022-12-05T10:50:33.975Z,99.1
2022-12-05T10:51:50.212Z,99.1
2022-12-05T10:53:06.454Z,99.1
2022-12-05T10:54:22.700Z,98.7
2022-12-05T10:55:38.929Z,98.5
2022-12-05T10:56:55.167Z,98.8
2022-12-05T10:58:11.423Z,98.5
2022-12-05T10:59:27.654Z,98.9
2022-12-05T11:00:43.884Z,99
2022-12-05T11:02:00.133Z,99.2
2022-12-05T11:03:16.368Z,99.5
2022-12-05T11:04:32.606Z,99.6
2022-12-05T11:05:47.875Z,99.4
2022-12-05T11:07:04.103Z,99.2
2022-12-05T11:08:20.344Z,99.3
2022-12-05T11:09:36.587Z,98.8
2022-12-05T11:10:52.835Z,98.8
2022-12-05T11:12:09.073Z,98.9
2022-12-05T11:13:25.299Z,98.9
2022-12-05T11:14:41.549Z,99.2
2022-12-05T11:15:57.795Z,99.2
2022-12-05T11:17:14.026Z,99.2
2022-12-05T11:18:30.259Z,99.1
2022-12-05T11:19:46.505Z,99.3
2022-12-05T11:21:02.740Z,99.1
2022-12-05T11:22:18.007Z,99.3
2022-12-05T11:23:34.254Z,99.4
2022-12-05T11:24:50.480Z,99.6
2022-12-05T11:26:06.726Z,99.5
2022-12-05T11:27:22.956Z,99.4
2022-12-05T11:28:39.209Z,99.4
2022-12-05T11:29:55.437Z,99.1
2022-12-05T11:31:11.681Z,99.3
2022-12-05T11:32:27.918Z,99.4
2022-12-05T11:33:44.158Z,99.2
2022-12-05T11:35:00.400Z,99.2
2022-12-05T11:36:16.635Z,99.1
2022-12-05T11:37:32.875Z,98.9
2022-12-05T11:38:48.147Z,99.1
2022-12-05T11:40:04.371Z,99.6
2022-12-05T11:41:20.614Z,99.5
2022-12-05T11:42:36.851Z,99.1
2022-12-05T11:43:53.107Z,99.2
2022-12-05T11:45:09.343Z,99
2022-12-05T11:46:25.572Z,99.1
2022-12-05T11:47:41.821Z,99.1
2022-12-05T11:48:58.051Z,99.4
2022-12-05T11:50:14.288Z,99.4
2022-12-05T11:51:30.539Z,99.4
2022-12-05T11:52:46.783Z,98.8
2022-12-05T11:54:03.011Z,98.9
2022-12-05T11:55:18.282Z,99.2
2022-12-05T11:56:34.519Z,99.2
2022-12-05T11:57:50.745Z,98.9
2022-12-05T11:59:06.998Z,99
2022-12-05T12:00:23.223Z,99.1
2022-12-05T12:01:39.474Z,98.8
2022-12-05T12:02:55.702Z,98.8
2022-12-05T12:04:11.953Z,98.8
2022-12-05T12:05:28.193Z,99.2
2022-12-05T12:06:44.428Z,99.2
2022-12-05T12:08:00.660Z,99.2
2022-12-05T12:09:16.916Z,98.8
2022-12-05T12:10:33.144Z,98.7
2022-12-05T12:11:48.399Z,99
2022-12-05T12:13:04.650Z,99
2022-12-05T12:14:20.885Z,99.1
2022-12-05T12:15:37.118Z,98.9
2022-12-05T12:16:53.362Z,99.1
2022-12-05T12:18:09.596Z,99
2022-12-05T12:19:25.849Z,98.3
2022-12-05T12:20:42.086Z,98.5
2022-12-05T12:21:58.320Z,99
2022-12-05T12:24:30.802Z,99.2
2022-12-05T12:25:47.046Z,99.3
2022-12-05T12:27:03.276Z,98.7
2022-12-05T12:28:18.000Z,98.7
2022-12-05T12:29:34.778Z,98.5
2022-12-05T12:30:51.014Z,98.3
2022-12-05T12:32:07.253Z,97.8
2022-12-05T12:33:23.498Z,97.9
2022-12-05T12:34:39.736Z,97.7
2022-12-05T12:35:55.971Z,97.8
2022-12-05T12:37:12.217Z,98.1
2022-12-05T12:38:28.467Z,98.5
2022-12-05T12:39:44.693Z,97.9
2022-12-05T12:41:00.931Z,97.3
2022-12-05T12:42:17.171Z,97.8
2022-12-05T12:43:33.000Z,98.1
2022-12-05T12:44:48.677Z,97.7
2022-12-05T12:46:04.929Z,97.8
2022-12-05T12:47:21.151Z,97.4
2022-12-05T12:48:37.394Z,97.6
2022-12-05T12:49:53.642Z,97.4
2022-12-05T12:51:09.878Z,97.4
2022-12-05T12:52:26.108Z,97.6
2022-12-05T12:53:42.355Z,97.7
2022-12-05T12:54:58.592Z,98.2
2022-12-05T12:56:14.841Z,98.4
2022-12-05T12:57:31.068Z,98
2022-12-05T12:58:47.305Z,98.2
2022-12-05T13:00:03.552Z,97.9
2022-12-05T13:01:18.804Z,98.2
2022-12-05T13:02:35.040Z,97.2
2022-12-05T13:03:51.279Z,97.4
2022-12-05T13:05:07.524Z,97.5
2022-12-05T13:06:23.768Z,97.5
2022-12-05T13:07:40.005Z,97.5
2022-12-05T13:08:56.237Z,97.2
2022-12-05T13:10:12.493Z,97.2
2022-12-05T13:11:28.730Z,97.2
2022-12-05T13:12:44.962Z,97.5
2022-12-05T13:14:01.209Z,97.6
2022-12-05T13:15:17.440Z,97.5
2022-12-05T13:16:33.685Z,97.7
2022-12-05T13:17:48.936Z,98.1
2022-12-05T13:19:05.179Z,98
2022-12-05T13:20:21.424Z,97.7
2022-12-05T13:21:37.677Z,98.1
2022-12-05T13:22:53.895Z,98.1
2022-12-05T13:24:10.140Z,98.3
2022-12-05T13:25:26.377Z,98.2
2022-12-05T13:26:42.632Z,98.1
2022-12-05T13:27:58.856Z,98.7
2022-12-05T13:29:15.111Z,98.7
2022-12-05T13:30:31.352Z,98.5
2022-12-05T13:31:47.591Z,98.8
2022-12-05T13:33:03.829Z,98.5
2022-12-05T13:34:19.079Z,98.7
2022-12-05T13:35:35.319Z,98.1
2022-12-05T13:36:51.557Z,97.7
2022-12-05T13:38:07.796Z,98.2
2022-12-05T13:39:24.046Z,98.5
2022-12-05T13:40:40.279Z,99.3
2022-12-05T13:41:55.537Z,98.4
2022-12-05T13:43:11.773Z,98.7
2022-12-05T13:44:28.014Z,98.3
2022-12-05T13:45:44.263Z,98.3
2022-12-05T13:47:00.495Z,98.3
2022-12-05T13:48:16.745Z,98.2
2022-12-05T13:49:32.985Z,98.4
2022-12-05T13:50:49.223Z,98
2022-12-05T13:52:05.457Z,98.3
2022-12-05T13:53:21.707Z,98.5
2022-12-05T13:54:37.938Z,98.5
2022-12-05T13:55:54.175Z,98.8
2022-12-05T13:57:10.409Z,99.1
2022-12-05T13:58:25.669Z,99
2022-12-05T13:59:41.910Z,99.2
2022-12-05T14:00:58.150Z,99.3
2022-12-05T14:02:14.395Z,99
2022-12-05T14:03:30.626Z,99
2022-12-05T14:04:46.867Z,99.1
2022-12-05T14:06:03.108Z,98.7
2022-12-05T14:07:19.354Z,98.9
2022-12-05T14:08:35.597Z,98.9
2022-12-05T14:09:51.843Z,98.2
2022-12-05T14:11:08.077Z,98.2
2022-12-05T14:12:24.310Z,98.7
2022-12-05T14:13:40.551Z,97.7
2022-12-05T14:14:55.808Z,97.7
2022-12-05T14:16:12.047Z,97.8
2022-12-05T14:17:28.304Z,98
2022-12-05T14:18:44.523Z,98
2022-12-05T14:20:00.779Z,97.9
2022-12-05T14:21:17.015Z,98.2
2022-12-05T14:22:33.247Z,97.8
2022-12-05T14:23:49.487Z,97.9
2022-12-05T14:25:05.736Z,98
2022-12-05T14:26:21.980Z,98
2022-12-05T14:27:38.212Z,97.4
2022-12-05T14:28:54.443Z,97.8
2022-12-05T14:30:10.689Z,98
2022-12-05T14:31:25.946Z,98
2022-12-05T14:32:42.188Z,98.2
2022-12-05T14:33:58.424Z,98.3
2022-12-05T14:35:14.667Z,97.8
2022-12-05T14:36:30.904Z,97.7
2022-12-05T14:37:47.148Z,97.3
2022-12-05T14:39:03.391Z,97.2
2022-12-05T14:40:19.624Z,97.5
2022-12-05T14:41:35.861Z,97.5
2022-12-05T14:42:52.110Z,97.1
2022-12-05T14:44:08.346Z,97.3
2022-12-05T14:45:24.598Z,97.1
2022-12-05T14:46:40.820Z,97.3
2022-12-05T14:47:56.081Z,97.2
2022-12-05T14:49:12.318Z,97.2
2022-12-05T14:50:28.556Z,97.7
2022-12-05T14:51:44.805Z,97.5
2022-12-05T14:53:01.043Z,97.5
2022-12-05T14:54:17.294Z,97.5
2022-12-05T14:55:33.530Z,97.1
2022-12-05T14:56:49.767Z,97.6
2022-12-05T14:58:06.004Z,97.1
2022-12-05T14:59:22.240Z,97.2
2022-12-05T15:00:38.480Z,97
2022-12-05T15:01:54.731Z,97.2
2022-12-05T15:03:10.958Z,97.6
2022-12-05T15:04:26.225Z,97.3
2022-12-05T15:05:42.468Z,97.6
2022-12-05T15:06:58.703Z,97.7
2022-12-05T15:08:14.939Z,97.9
2022-12-05T15:09:31.196Z,97.7
2022-12-05T15:10:47.423Z,97.7
2022-12-05T15:12:03.664Z,97.7
2022-12-05T15:13:19.904Z,97.9
2022-12-05T15:14:36.135Z,98
2022-12-05T15:15:52.392Z,98.2
2022-12-05T15:17:08.627Z,98
2022-12-05T15:18:24.864Z,98.1
2022-12-05T15:19:41.103Z,98.3
2022-12-05T15:20:56.365Z,98.3
2022-12-05T15:22:12.593Z,98.1
2022-12-05T15:23:28.836Z,98.2
2022-12-05T15:24:45.073Z,98.3
2022-12-05T15:26:01.314Z,98.3
2022-12-05T15:27:17.556Z,98.5
2022-12-05T15:28:33.000Z,98.5
2022-12-05T15:29:50.029Z,98.5
2022-12-05T15:31:06.291Z,98.3
2022-12-05T15:32:22.519Z,98.7
2022-12-05T15:33:38.813Z,98.6
2022-12-05T15:34:55.049Z,98.5
2022-12-05T15:36:11.290Z,98.1
2022-12-05T15:37:26.541Z,98.3
2022-12-05T15:38:42.791Z,98.1
2022-12-05T15:39:59.075Z,97.8
2022-12-05T15:41:15.382Z,98.1
2022-12-05T15:42:31.679Z,98
2022-12-05T15:43:47.958Z,98
2022-12-05T15:45:04.251Z,98.2
2022-12-05T15:46:20.560Z,98.3
2022-12-05T15:47:36.836Z,98.4
2022-12-05T15:48:53.148Z,98.7
2022-12-05T15:50:09.430Z,98.6
2022-12-05T15:51:25.730Z,98.8
2022-12-05T15:52:42.018Z,98.8
2022-12-05T15:53:57.334Z,98.8
2022-12-05T15:55:13.625Z,98.8
2022-12-05T15:56:29.910Z,99.1
2022-12-05T15:57:46.206Z,99.1
2022-12-05T15:59:02.503Z,99
2022-12-05T16:00:18.812Z,98.8
2022-12-05T16:01:35.092Z,98.7
2022-12-05T16:02:51.383Z,98.5
2022-12-05T16:04:07.676Z,98.6
2022-12-05T16:05:23.982Z,98.4
2022-12-05T16:06:40.267Z,98.4
2022-12-05T16:07:56.559Z,98.4
2022-12-05T16:09:12.859Z,98.2
2022-12-05T16:10:28.160Z,98.5
2022-12-05T16:11:44.461Z,98.6
2022-12-05T16:13:00.756Z,98.7
2022-12-05T16:14:17.050Z,98.7
2022-12-05T16:15:33.349Z,98.9
2022-12-05T16:16:49.636Z,98.9
2022-12-05T16:18:05.932Z,98.8
2022-12-05T16:19:22.228Z,98.9
2022-12-05T16:20:38.519Z,99
2022-12-05T16:21:54.805Z,99
2022-12-05T16:23:11.098Z,99.3
2022-12-05T16:24:27.394Z,99.6
2022-12-05T16:25:43.706Z,99.8
2022-12-05T16:26:59.009Z,99.8
2022-12-05T16:28:15.300Z,99.8
2022-12-05T16:29:31.598Z,99.8
2022-12-05T16:30:47.887Z,99.8
2022-12-05T16:32:04.185Z,99.9
2022-12-05T16:33:20.471Z,100
2022-12-05T16:34:36.768Z,100
2022-12-05T16:35:53.069Z,100
2022-12-05T16:37:09.349Z,100
2022-12-05T16:38:25.644Z,100
2022-12-05T16:39:41.942Z,100
2022-12-05T16:40:58.236Z,100
2022-12-05T16:42:14.538Z,100
2022-12-05T16:43:29.841Z,100
2022-12-05T16:44:46.137Z,100
2022-12-05T16:46:02.422Z,100
2022-12-05T16:47:18.725Z,100
2022-12-05T16:48:35.012Z,100
2022-12-05T16:49:51.314Z,100
2022-12-05T16:51:07.597Z,100
2022-12-05T16:52:23.900Z,100
2022-12-05T16:53:40.187Z,100
2022-12-05T16:54:56.497Z,100
2022-12-05T16:56:12.777Z,100
2022-12-05T16:57:29.072Z,100
2022-12-05T16:58:45.369Z,100
2022-12-05T17:00:01.780Z,100
2022-12-05T17:01:18.073Z,100
2022-12-05T17:02:34.373Z,100
2022-12-05T17:03:50.666Z,100
2022-12-05T17:05:06.954Z,100
2022-12-05T17:06:23.249Z,100
2022-12-05T17:07:39.561Z,100
2022-12-05T17:08:55.844Z,100
2022-12-05T17:10:12.137Z,100
2022-12-05T17:11:28.439Z,100
2022-12-05T17:12:44.720Z,100
2022-12-05T17:14:01.026Z,100
2022-12-05T17:15:17.313Z,100
2022-12-05T17:16:32.631Z,100
2022-12-05T17:17:48.923Z,100